createdAt,value
2023-05-09T00:00:17.883Z,97679.41
2023-05-09T00:05:22.529Z,97824.44
2023-05-09T00:10:25.817Z,97879.13
2023-05-09T00:15:29.740Z,97816.19
2023-05-09T00:20:34.939Z,97853.31
2023-05-09T00:25:48.267Z,97795.22
2023-05-09T00:30:52.171Z,97751.41
2023-05-09T00:35:55.902Z,97746.78
2023-05-09T00:41:00.839Z,97722.31
2023-05-09T00:46:03.624Z,97788.72
2023-05-09T00:51:09.165Z,97840.19
2023-05-09T00:56:13.718Z,97858.81
2023-05-09T01:01:17.867Z,97797.81
2023-05-09T01:06:34.049Z,97817.91
2023-05-09T01:12:05.149Z,97830.09
2023-05-09T01:17:24.199Z,97796.97
2023-05-09T01:22:32.895Z,97850.03
2023-05-09T01:27:48.207Z,97625.03
2023-05-09T01:32:52.712Z,97794.19
2023-05-09T01:37:56.211Z,97796.41
2023-05-09T01:43:02.786Z,97576.78
2023-05-09T01:48:08.158Z,97781.28
2023-05-09T01:53:13.297Z,97791.44
2023-05-09T01:58:18.352Z,97816.19
2023-05-09T02:03:22.814Z,97614.94
2023-05-09T02:08:26.506Z,97816.91
2023-05-09T02:13:29.311Z,97657.44
2023-05-09T02:18:42.840Z,97812.06
2023-05-09T02:23:45.487Z,97749.28
2023-05-09T02:28:48.595Z,97841.06
2023-05-09T02:33:53.668Z,97811.38
2023-05-09T02:38:56.772Z,97555.97
2023-05-09T02:43:59.314Z,97833.66
2023-05-09T02:49:01.913Z,97801.69
2023-05-09T02:54:04.712Z,97526.34
2023-05-09T02:59:08.520Z,97682.69
2023-05-09T03:04:21.063Z,97657.81
2023-05-09T03:09:24.924Z,97793.06
2023-05-09T03:14:37.506Z,97704.03
2023-05-09T03:19:40.101Z,97775.38
2023-05-09T03:24:43.023Z,97576.84
2023-05-09T03:29:45.647Z,97848.16
2023-05-09T03:34:58.359Z,97856.16
2023-05-09T03:40:00.918Z,97666.38
2023-05-09T03:45:03.717Z,97846.03
2023-05-09T03:50:07.125Z,97770.50
2023-05-09T03:55:10.595Z,97647.31
2023-05-09T04:00:13.529Z,97561.81
2023-05-09T04:05:18.195Z,97862.78
2023-05-09T04:10:20.847Z,97871.63
2023-05-09T04:15:26.829Z,97713.41
2023-05-09T04:20:30.295Z,97725.47
2023-05-09T04:25:43.663Z,97766.06
2023-05-09T04:30:46.820Z,97840.75
2023-05-09T04:35:49.641Z,97727.00
2023-05-09T04:40:52.720Z,97846.50
2023-05-09T04:45:55.286Z,97849.75
2023-05-09T04:50:58.210Z,97658.25
2023-05-09T04:56:00.952Z,97632.34
2023-05-09T05:01:03.700Z,97867.69
2023-05-09T05:06:07.462Z,97860.81
2023-05-09T05:11:10.562Z,97746.44
2023-05-09T05:16:17.839Z,97776.03
2023-05-09T05:21:20.673Z,97793.09
2023-05-09T05:26:24.032Z,97805.03
2023-05-09T05:31:26.631Z,97735.13
2023-05-09T05:36:30.077Z,97774.84
2023-05-09T05:41:32.865Z,97670.13
2023-05-09T05:46:35.782Z,97772.28
2023-05-09T05:51:39.490Z,97884.19
2023-05-09T05:56:42.161Z,97889.31
2023-05-09T06:01:45.958Z,97627.28
2023-05-09T06:06:49.349Z,97894.56
2023-05-09T06:11:53.182Z,97887.38
2023-05-09T06:16:56.431Z,97739.22
2023-05-09T06:21:59.331Z,97774.00
2023-05-09T06:27:02.061Z,97835.78
2023-05-09T06:32:04.956Z,97873.44
2023-05-09T06:37:07.631Z,97867.69
2023-05-09T06:42:11.151Z,97780.97
2023-05-09T06:47:13.940Z,97716.88
2023-05-09T06:52:17.238Z,97611.81
2023-05-09T06:57:20.192Z,97761.72
2023-05-09T07:02:22.889Z,97580.25
2023-05-09T07:07:25.483Z,97635.72
2023-05-09T07:12:28.037Z,97842.19
2023-05-09T07:17:31.112Z,97594.97
2023-05-09T07:22:36.350Z,97670.41
2023-05-09T07:27:39.856Z,97864.38
2023-05-09T07:32:42.471Z,97863.53
2023-05-09T07:37:45.554Z,97858.84
2023-05-09T07:42:58.150Z,97732.66
2023-05-09T07:48:01.049Z,97760.19
2023-05-09T07:53:03.863Z,97840.41
2023-05-09T07:58:06.507Z,97862.66
2023-05-09T08:03:09.705Z,97790.00
2023-05-09T08:08:12.527Z,97701.56
2023-05-09T08:13:25.257Z,97785.91
2023-05-09T08:18:28.493Z,97849.56
2023-05-09T08:23:31.338Z,97700.81
2023-05-09T08:28:34.301Z,97702.56
2023-05-09T08:33:41.880Z,97725.03
2023-05-09T08:38:45.870Z,97857.72
2023-05-09T08:43:49.830Z,97773.25
2023-05-09T08:48:53.630Z,97635.31
2023-05-09T08:53:56.351Z,97807.78
2023-05-09T08:58:59.981Z,97601.16
2023-05-09T09:04:06.489Z,97803.25
2023-05-09T09:09:11.131Z,97872.00
2023-05-09T09:14:21.368Z,97652.41
2023-05-09T09:19:31.001Z,97863.78
2023-05-09T09:24:35.425Z,97875.78
2023-05-09T09:29:39.769Z,97551.78
2023-05-09T09:34:52.294Z,97658.88
2023-05-09T09:39:56.608Z,97833.44
2023-05-09T09:45:11.477Z,97753.28
2023-05-09T09:50:19.740Z,97841.03
2023-05-09T09:55:23.704Z,97852.19
2023-05-09T10:00:28.583Z,97831.81
2023-05-09T10:05:32.277Z,97850.94
2023-05-09T10:10:44.795Z,97800.50
2023-05-09T10:15:53.625Z,97800.03
2023-05-09T10:21:01.591Z,97763.38
2023-05-09T10:26:12.358Z,97519.59
2023-05-09T10:31:27.771Z,97834.16
2023-05-09T10:36:32.032Z,97829.69
2023-05-09T10:41:34.975Z,97770.38
2023-05-09T10:46:38.265Z,97762.00
2023-05-09T10:51:51.682Z,97783.25
2023-05-09T10:56:54.848Z,97771.59
2023-05-09T11:02:15.716Z,97729.13
2023-05-09T11:07:25.446Z,97773.41
2023-05-09T11:12:28.128Z,97679.97
2023-05-09T11:17:33.252Z,97760.13
2023-05-09T11:22:47.889Z,97752.59
2023-05-09T11:27:51.035Z,97481.78
2023-05-09T11:32:56.450Z,97743.03
2023-05-09T11:38:07.076Z,97771.75
2023-05-09T11:43:10.226Z,97759.06
2023-05-09T11:48:12.797Z,97723.34
2023-05-09T11:53:15.430Z,97632.56
2023-05-09T11:58:18.199Z,97530.47
2023-05-09T12:03:20.916Z,97575.06
2023-05-09T12:08:25.792Z,97537.28
2023-05-09T12:13:46.029Z,97505.91
2023-05-09T12:18:52.535Z,97734.34
2023-05-09T12:23:56.811Z,97697.16
2023-05-09T12:28:59.658Z,97724.00
2023-05-09T12:34:02.577Z,97718.97
2023-05-09T12:39:15.423Z,97672.84
2023-05-09T12:44:29.009Z,97656.91
2023-05-09T12:49:32.988Z,97705.53
2023-05-09T12:54:48.580Z,97640.59
2023-05-09T12:59:51.761Z,97696.91
2023-05-09T13:05:07.653Z,97675.41
2023-05-09T13:10:24.506Z,97591.44
2023-05-09T13:15:27.576Z,97631.25
2023-05-09T13:20:31.036Z,97649.06
2023-05-09T13:25:33.975Z,97674.94
2023-05-09T13:30:36.699Z,97437.75
2023-05-09T13:35:39.442Z,97565.25
2023-05-09T13:40:47.477Z,97610.78
2023-05-09T13:45:50.130Z,97651.09
2023-05-09T13:50:52.995Z,97649.53
2023-05-09T13:55:56.469Z,97408.31
2023-05-09T14:00:59.135Z,97635.81
2023-05-09T14:06:05.580Z,97592.75
2023-05-09T14:11:10.109Z,97433.84
2023-05-09T14:16:12.686Z,97558.88
2023-05-09T14:21:16.337Z,97633.28
2023-05-09T14:26:20.374Z,97618.50
2023-05-09T14:31:23.146Z,97523.94
2023-05-09T14:36:25.773Z,97558.56
2023-05-09T14:41:28.291Z,97623.06
2023-05-09T14:46:31.095Z,97589.47
2023-05-09T14:51:34.279Z,97583.72
2023-05-09T14:56:36.833Z,97609.19
2023-05-09T15:01:39.762Z,97495.78
2023-05-09T15:06:42.355Z,97591.53
2023-05-09T15:11:48.843Z,97471.47
2023-05-09T15:16:53.087Z,97455.25
2023-05-09T15:21:55.641Z,97482.03
2023-05-09T15:26:58.139Z,97429.97
2023-05-09T15:32:01.906Z,97591.84
2023-05-09T15:37:04.726Z,97390.44
2023-05-09T15:42:18.455Z,97561.66
2023-05-09T15:47:31.276Z,97565.84
2023-05-09T15:52:34.266Z,97294.78
2023-05-09T15:57:49.005Z,97559.19
2023-05-09T16:02:52.163Z,97574.81
2023-05-09T16:07:54.945Z,97446.44
2023-05-09T16:12:57.703Z,97280.63
2023-05-09T16:18:00.266Z,97433.41
2023-05-09T16:23:02.803Z,97541.81
2023-05-09T16:28:09.353Z,97538.38
2023-05-09T16:33:19.976Z,97566.50
2023-05-09T16:38:22.518Z,97570.47
2023-05-09T16:43:25.190Z,97562.31
2023-05-09T16:48:27.835Z,97495.38
2023-05-09T16:53:30.442Z,97433.22
2023-05-09T16:58:45.220Z,97472.81
2023-05-09T17:03:49.264Z,97318.41
2023-05-09T17:08:51.893Z,97504.47
2023-05-09T17:13:55.065Z,97435.88
2023-05-09T17:18:58.947Z,97429.84
2023-05-09T17:24:02.875Z,97295.06
2023-05-09T17:29:06.264Z,97537.22
2023-05-09T17:34:18.878Z,97296.13
2023-05-09T17:39:21.735Z,97554.53
2023-05-09T17:44:25.082Z,97384.81
2023-05-09T17:49:31.492Z,97559.88
2023-05-09T17:54:34.070Z,97569.50
2023-05-09T17:59:39.952Z,97562.53
2023-05-09T18:04:45.561Z,97569.06
2023-05-09T18:09:59.709Z,97552.38
2023-05-09T18:15:03.022Z,97557.94
2023-05-09T18:20:07.550Z,97504.22
2023-05-09T18:25:10.656Z,97473.22
2023-05-09T18:30:13.793Z,97290.66
2023-05-09T18:35:16.884Z,97560.84
2023-05-09T18:40:19.817Z,97575.09
2023-05-09T18:45:22.397Z,97365.72
2023-05-09T18:50:25.239Z,97529.53
2023-05-09T18:55:27.790Z,97443.28
2023-05-09T19:00:30.385Z,97582.53
2023-05-09T19:05:32.999Z,97574.59
2023-05-09T19:10:38.703Z,97579.41
2023-05-09T19:15:51.286Z,97469.91
2023-05-09T19:20:54.297Z,97463.72
2023-05-09T19:26:06.815Z,97525.25
2023-05-09T19:31:26.241Z,97557.81
2023-05-09T19:36:28.980Z,97543.00
2023-05-09T19:41:34.340Z,97505.09
2023-05-09T19:46:38.926Z,97248.97
2023-05-09T19:51:51.722Z,97263.56
2023-05-09T19:56:54.375Z,97480.31
2023-05-09T20:02:00.423Z,97556.00
2023-05-09T20:07:03.880Z,97566.69
2023-05-09T20:12:06.816Z,97344.78
2023-05-09T20:17:09.424Z,97388.72
2023-05-09T20:22:12.188Z,97554.22
2023-05-09T20:27:14.776Z,97534.69
2023-05-09T20:32:20.561Z,97418.97
2023-05-09T20:37:23.125Z,97533.47
2023-05-09T20:42:26.690Z,97513.44
2023-05-09T20:47:29.217Z,97279.94
2023-05-09T20:52:31.949Z,97519.34
2023-05-09T20:57:34.636Z,97336.06
2023-05-09T21:02:37.277Z,97450.34
2023-05-09T21:07:39.875Z,97182.78
2023-05-09T21:12:42.688Z,97510.63
2023-05-09T21:17:45.529Z,97409.66
2023-05-09T21:22:48.342Z,97341.06
2023-05-09T21:27:51.273Z,97435.03
2023-05-09T21:32:54.147Z,97244.53
2023-05-09T21:37:57.045Z,97221.34
2023-05-09T21:42:59.823Z,97447.00
2023-05-09T21:48:02.496Z,97441.41
2023-05-09T21:53:05.977Z,97400.50
2023-05-09T21:58:08.912Z,97398.69
2023-05-09T22:03:11.863Z,97487.00
2023-05-09T22:08:14.852Z,97388.78
2023-05-09T22:13:17.742Z,97383.19
2023-05-09T22:18:20.328Z,97192.81
2023-05-09T22:23:23.421Z,97317.31
2023-05-09T22:28:36.147Z,97471.63
2023-05-09T22:33:46.449Z,97419.31
2023-05-09T22:38:48.960Z,97140.25
2023-05-09T22:43:52.089Z,97431.91
2023-05-09T22:49:00.989Z,97465.38
2023-05-09T22:54:03.611Z,97450.75
2023-05-09T22:59:07.256Z,97356.50
2023-05-09T23:04:10.124Z,97417.63
2023-05-09T23:09:12.860Z,97401.91
2023-05-09T23:14:15.605Z,97353.63
2023-05-09T23:19:18.099Z,97322.22
2023-05-09T23:24:20.875Z,97176.56
2023-05-09T23:29:23.682Z,97138.66
2023-05-09T23:34:29.465Z,97100.66
2023-05-09T23:39:32.752Z,97157.88
2023-05-09T23:44:35.482Z,97112.06
2023-05-09T23:49:38.078Z,97183.97
2023-05-09T23:54:40.891Z,97181.59
2023-05-09T23:59:43.687Z,97072.03
